createdAt,value
2023-04-21T03:55:28.592Z,100313.12
2023-04-21T03:58:31.124Z,100320.09
2023-04-21T04:01:36.418Z,100314.87
2023-04-21T04:04:39.191Z,100324.53
2023-04-21T04:07:41.474Z,100321.00
2023-04-21T04:10:43.869Z,100326.34
2023-04-21T04:13:45.980Z,100323.75
2023-04-21T04:16:48.407Z,100329.88
2023-04-21T04:19:50.631Z,100336.00
2023-04-21T04:22:53.112Z,100337.81
2023-04-21T04:25:56.139Z,100329.09
2023-04-21T04:29:00.347Z,100338.78
2023-04-21T04:32:04.084Z,100336.16
2023-04-21T04:35:06.911Z,100344.91
2023-04-21T04:38:09.881Z,100348.44
2023-04-21T04:41:12.787Z,100349.28
2023-04-21T04:44:16.230Z,100352.84
2023-04-21T04:47:18.665Z,100348.41
2023-04-21T04:50:21.285Z,100354.50
2023-04-21T04:53:23.669Z,100351.06
2023-04-21T04:56:26.015Z,100352.91
2023-04-21T04:59:30.219Z,100355.53
2023-04-21T05:02:33.090Z,100354.66
2023-04-21T05:05:35.753Z,100348.63
2023-04-21T05:08:37.869Z,100353.91
2023-04-21T05:11:40.212Z,100353.84
2023-04-21T05:14:42.293Z,100340.75
2023-04-21T05:17:44.707Z,100352.97
2023-04-21T05:20:46.849Z,100343.47
2023-04-21T05:23:49.212Z,100343.47
2023-04-21T05:26:51.346Z,100340.91
2023-04-21T05:29:55.077Z,100350.50
2023-04-21T05:32:57.342Z,100346.16
2023-04-21T05:35:59.799Z,100354.91
2023-04-21T05:39:01.884Z,100351.44
2023-04-21T05:42:04.590Z,100358.41
2023-04-21T05:45:07.334Z,100357.50
2023-04-21T05:48:11.627Z,100357.53
2023-04-21T05:51:15.645Z,100355.81
2023-04-21T05:54:18.294Z,100354.91
2023-04-21T05:57:20.774Z,100347.12
2023-04-21T06:00:23.150Z,100356.75
2023-04-21T06:03:40.026Z,100354.97
2023-04-21T06:07:02.872Z,100345.37
2023-04-21T06:10:20.855Z,100351.53
2023-04-21T06:13:37.988Z,100348.03
2023-04-21T06:17:00.950Z,100353.28
2023-04-21T06:20:16.829Z,100354.19
2023-04-21T06:23:46.945Z,100353.31
2023-04-21T06:27:02.840Z,100349.81
2023-04-21T06:30:18.865Z,100351.59
2023-04-21T06:33:34.840Z,100354.22
2023-04-21T06:36:45.352Z,100356.84
2023-04-21T06:39:47.524Z,100350.72
2023-04-21T06:42:49.934Z,100355.94
2023-04-21T06:45:54.960Z,100351.56
2023-04-21T06:48:57.450Z,100355.06
2023-04-21T06:51:59.683Z,100355.06
2023-04-21T06:55:02.074Z,100349.81
2023-04-21T06:58:04.260Z,100342.78
2023-04-21T07:01:06.758Z,100343.62
2023-04-21T07:04:08.906Z,100345.31
2023-04-21T07:07:11.375Z,100342.69
2023-04-21T07:10:19.012Z,100336.53
2023-04-21T07:13:21.416Z,100348.72
2023-04-21T07:16:24.517Z,100348.78
2023-04-21T07:19:27.615Z,100345.25
2023-04-21T07:22:34.586Z,100343.50
2023-04-21T07:25:37.058Z,100351.34
2023-04-21T07:28:40.944Z,100346.06
2023-04-21T07:31:43.454Z,100340.69
2023-04-21T07:34:46.897Z,100340.69
2023-04-21T07:37:49.305Z,100337.19
2023-04-21T07:40:51.936Z,100340.66
2023-04-21T07:43:55.109Z,100338.00
2023-04-21T07:46:57.237Z,100340.62
2023-04-21T07:49:59.701Z,100338.81
2023-04-21T07:53:02.209Z,100336.16
2023-04-21T07:56:04.774Z,100338.72
2023-04-21T07:59:06.910Z,100335.22
2023-04-21T08:02:09.479Z,100340.41
2023-04-21T08:05:12.000Z,100338.56
2023-04-21T08:08:20.482Z,100337.62
2023-04-21T08:11:23.003Z,100334.00
2023-04-21T08:14:26.910Z,100331.22
2023-04-21T08:17:29.659Z,100335.56
2023-04-21T08:20:35.970Z,100327.63
2023-04-21T08:23:38.521Z,100328.44
2023-04-21T08:26:40.772Z,100325.63
2023-04-21T08:29:43.270Z,100329.00
2023-04-21T08:32:45.479Z,100322.81
2023-04-21T08:35:59.220Z,100327.94
2023-04-21T08:39:06.332Z,100318.19
2023-04-21T08:42:09.718Z,100319.81
2023-04-21T08:49:04.062Z,100317.84
2023-04-21T08:52:07.019Z,100324.72
2023-04-21T08:55:11.238Z,100323.03
2023-04-21T08:58:14.042Z,100325.75
2023-04-21T09:01:17.098Z,100313.47
2023-04-21T09:04:19.911Z,100314.28
2023-04-21T09:07:36.468Z,100315.97
2023-04-21T09:10:55.309Z,100316.53
2023-04-21T09:14:01.061Z,100315.37
2023-04-21T09:17:04.718Z,100309.94
2023-04-21T09:20:18.682Z,100308.16
2023-04-21T09:23:21.770Z,100310.72
2023-04-21T09:26:24.041Z,100306.47
2023-04-21T09:29:26.616Z,100299.19
2023-04-21T09:32:29.322Z,100303.56
2023-04-21T09:35:36.612Z,100294.25
2023-04-21T09:38:38.727Z,100284.28
2023-04-21T09:41:41.252Z,100291.72
2023-04-21T09:44:52.367Z,100275.47
2023-04-21T09:48:04.068Z,100276.53
2023-04-21T09:57:43.936Z,100278.59
2023-04-21T10:00:47.273Z,100277.22
2023-04-21T10:03:50.433Z,100275.06
2023-04-21T10:06:53.208Z,100273.53
2023-04-21T10:09:58.285Z,100269.25
2023-04-21T10:13:01.860Z,100270.34
2023-04-21T10:16:07.533Z,100262.94
2023-04-21T10:19:26.544Z,100268.69
2023-04-21T10:22:31.857Z,100263.84
2023-04-21T10:25:34.156Z,100262.00
2023-04-21T10:28:48.148Z,100251.41
2023-04-21T10:31:54.078Z,100259.28
2023-04-21T10:34:56.834Z,100250.19
2023-04-21T10:37:58.937Z,100248.00
2023-04-21T10:41:28.216Z,100241.56
2023-04-21T10:44:30.746Z,100236.84
2023-04-21T10:47:52.470Z,100245.59
2023-04-21T10:50:54.654Z,100239.78
2023-04-21T10:53:57.051Z,100229.38
2023-04-21T10:56:59.567Z,100231.28
2023-04-21T11:00:06.145Z,100228.69
2023-04-21T11:03:08.731Z,100227.25
2023-04-21T11:06:15.778Z,100230.84
2023-04-21T11:09:17.873Z,100225.66
2023-04-21T11:12:33.264Z,100219.31
2023-04-21T11:15:36.432Z,100214.09
2023-04-21T11:18:41.391Z,100221.91
2023-04-21T11:21:43.600Z,100218.16
2023-04-21T11:24:47.279Z,100220.81
2023-04-21T11:27:56.724Z,100218.78
2023-04-21T11:30:59.278Z,100213.50
2023-04-21T11:34:02.492Z,100217.44
2023-04-21T11:37:07.696Z,100206.09
2023-04-21T11:40:10.383Z,100213.75
2023-04-21T11:43:13.070Z,100208.50
2023-04-21T11:46:24.125Z,100204.75
2023-04-21T11:49:31.907Z,100205.38
2023-04-21T11:52:37.336Z,100205.59
2023-04-21T11:55:43.224Z,100198.47
2023-04-21T11:58:46.402Z,100207.28
2023-04-21T12:01:50.570Z,100195.66
2023-04-21T12:05:15.409Z,100197.53
2023-04-21T12:08:17.589Z,100199.09
2023-04-21T12:11:20.064Z,100192.38
2023-04-21T12:14:25.467Z,100202.47
2023-04-21T12:17:36.782Z,100181.19
2023-04-21T12:20:40.163Z,100189.37
2023-04-21T12:23:45.468Z,100181.66
2023-04-21T12:26:47.949Z,100182.69
2023-04-21T12:29:50.449Z,100174.09
2023-04-21T12:32:54.234Z,100173.88
2023-04-21T12:35:56.897Z,100171.03
2023-04-21T12:38:58.989Z,100172.78
2023-04-21T12:42:01.936Z,100176.44
2023-04-21T12:45:05.327Z,100177.06
2023-04-21T12:48:07.968Z,100177.84
2023-04-21T12:51:10.219Z,100177.22
2023-04-21T12:54:12.850Z,100173.09
2023-04-21T12:57:15.598Z,100168.16
2023-04-21T13:00:18.688Z,100168.09
2023-04-21T13:03:21.160Z,100169.75
2023-04-21T13:06:23.653Z,100168.25
2023-04-21T13:09:25.984Z,100162.00
2023-04-21T13:12:28.735Z,100165.72
2023-04-21T13:15:31.048Z,100165.72
2023-04-21T13:18:37.652Z,100164.75
2023-04-21T13:21:40.068Z,100159.03
2023-04-21T13:24:42.694Z,100160.16
2023-04-21T13:27:46.739Z,100157.34
2023-04-21T13:31:49.011Z,100160.16
2023-04-21T13:34:53.812Z,100162.59
2023-04-21T13:37:56.054Z,100153.88
2023-04-21T13:40:58.623Z,100160.75
2023-04-21T13:44:00.842Z,100150.25
2023-04-21T13:47:03.504Z,100157.25
2023-04-21T13:50:06.390Z,100151.03
2023-04-21T13:53:08.895Z,100143.84
2023-04-21T13:56:11.558Z,100140.12
2023-04-21T13:59:16.509Z,100148.84
2023-04-21T14:02:18.842Z,100130.97
2023-04-21T14:05:21.509Z,100139.78
2023-04-21T14:08:24.173Z,100131.72
2023-04-21T14:11:26.695Z,100126.50
2023-04-21T14:14:38.969Z,100128.22
2023-04-21T14:17:41.993Z,100122.16
2023-04-21T14:20:45.300Z,100124.66
2023-04-21T14:23:47.796Z,100115.78
2023-04-21T14:26:50.302Z,100112.91
2023-04-21T14:29:52.721Z,100114.63
2023-04-21T14:32:54.828Z,100122.37
2023-04-21T14:35:57.310Z,100110.88
2023-04-21T14:38:59.477Z,100112.84
2023-04-21T14:42:02.550Z,100111.84
2023-04-21T14:45:05.067Z,100099.72
2023-04-21T14:48:07.589Z,100100.41
2023-04-21T14:51:10.205Z,100097.81
2023-04-21T14:54:12.613Z,100100.81
2023-04-21T14:57:19.825Z,100102.19
2023-04-21T15:00:23.578Z,100099.47
2023-04-21T15:03:26.418Z,100096.75
2023-04-21T15:06:29.003Z,100095.00
2023-04-21T15:09:31.205Z,100096.53
2023-04-21T15:12:35.965Z,100092.06
2023-04-21T15:15:38.673Z,100091.19
2023-04-21T15:18:41.111Z,100088.78
2023-04-21T15:21:43.335Z,100076.91
